Time;durP1;ratioP1;P1;durP2;ratioP2;P2;SDS_P1;SDS_P2;PMS_P1;PMS_P2;Temp;Humidity;BMP_temperature;BMP_pressure;BME280_temperature;BME280_humidity;BME280_pressure;Samples;Min_cycle;Max_cycle;Signal;HPM_P1;HPM_P2
2020/12/17 00:00:50;;;;;;;31.93;29.23;;;9.20;1.00;;;;;;5073515;28;20763;-71
2020/12/17 00:03:15;;;;;;;30.37;27.57;;;9.10;1.00;;;;;;5073631;28;20335;-71
2020/12/17 00:05:41;;;;;;;29.07;26.20;;;9.10;1.00;;;;;;5073400;28;20177;-71
2020/12/17 00:08:06;;;;;;;28.23;24.40;;;9.10;1.00;;;;;;5072974;28;20178;-71
2020/12/17 00:10:32;;;;;;;26.43;23.93;;;9.20;1.00;;;;;;5073211;28;20270;-71
2020/12/17 00:12:57;;;;;;;34.30;30.83;;;9.10;1.00;;;;;;5073007;28;20260;-71
2020/12/17 00:15:23;;;;;;;33.00;29.80;;;9.10;1.00;;;;;;5073536;28;20203;-71
2020/12/17 00:17:50;;;;;;;32.70;29.70;;;9.00;1.00;;;;;;5072689;28;20651;-71
2020/12/17 00:20:21;;;;;;;31.93;29.33;;;9.10;1.00;;;;;;5073693;28;20177;-71
2020/12/17 00:22:48;;;;;;;30.30;27.30;;;9.10;1.00;;;;;;5073045;28;20494;-71
2020/12/17 00:25:18;;;;;;;29.83;26.73;;;9.10;1.00;;;;;;5073373;28;20404;-71
2020/12/17 00:27:45;;;;;;;32.67;29.97;;;9.10;1.00;;;;;;5073086;28;20871;-71
2020/12/17 00:30:13;;;;;;;29.37;26.57;;;9.20;1.00;;;;;;5073371;28;20538;-71
2020/12/17 00:32:40;;;;;;;31.00;28.20;;;9.20;1.00;;;;;;5073667;28;20483;-71
2020/12/17 00:35:07;;;;;;;30.37;27.07;;;9.20;1.00;;;;;;5072926;28;20431;-71
2020/12/17 00:37:33;;;;;;;31.47;28.43;;;9.10;1.00;;;;;;5073221;28;20762;-71
2020/12/17 00:39:59;;;;;;;30.80;27.70;;;9.10;1.00;;;;;;5074702;28;20404;-71
2020/12/17 00:42:24;;;;;;;27.87;25.13;;;9.20;1.00;;;;;;5076772;28;20498;-71
2020/12/17 00:44:50;;;;;;;31.10;27.97;;;9.20;1.00;;;;;;5076768;28;20828;-71
2020/12/17 00:47:16;;;;;;;32.73;29.70;;;9.20;1.00;;;;;;5076260;28;20197;-71
2020/12/17 00:49:43;;;;;;;30.93;27.93;;;9.10;1.00;;;;;;5076271;28;20250;-71
2020/12/17 00:52:09;;;;;;;30.40;27.30;;;9.10;1.00;;;;;;5076275;28;20897;-71
2020/12/17 00:54:38;;;;;;;31.73;29.00;;;9.20;1.00;;;;;;5076185;28;20410;-71
2020/12/17 00:57:03;;;;;;;35.90;33.00;;;9.20;1.00;;;;;;5076456;28;20193;-71
2020/12/17 00:59:29;;;;;;;34.30;31.20;;;9.10;1.00;;;;;;5076478;28;20418;-71
2020/12/17 01:01:54;;;;;;;30.80;27.73;;;9.10;1.00;;;;;;5076741;28;20208;-71
2020/12/17 01:04:20;;;;;;;29.03;25.10;;;9.10;1.00;;;;;;5076313;28;20180;-71
2020/12/17 01:06:46;;;;;;;31.03;28.23;;;9.20;1.00;;;;;;5076084;28;20229;-71
2020/12/17 01:09:11;;;;;;;34.00;30.90;;;9.10;1.00;;;;;;5075963;28;20208;-71
2020/12/17 01:11:37;;;;;;;32.37;29.23;;;9.10;1.00;;;;;;5076213;28;20690;-71
2020/12/17 01:14:03;;;;;;;34.07;31.07;;;9.20;1.00;;;;;;5076298;28;20180;-71
2020/12/17 01:16:29;;;;;;;33.20;30.13;;;9.20;1.00;;;;;;5076541;28;20192;-71
2020/12/17 01:18:55;;;;;;;31.20;28.30;;;9.20;1.00;;;;;;5075761;28;20407;-71
2020/12/17 01:21:21;;;;;;;33.97;30.93;;;9.20;1.00;;;;;;5076106;28;20238;-71
2020/12/17 01:23:47;;;;;;;31.50;28.83;;;9.20;1.00;;;;;;5075693;28;20174;-71
2020/12/17 01:26:13;;;;;;;34.13;30.77;;;9.20;1.00;;;;;;5075483;28;20526;-71
2020/12/17 01:28:40;;;;;;;28.77;26.17;;;9.20;1.00;;;;;;5075327;28;20447;-71
2020/12/17 01:31:10;;;;;;;34.33;30.83;;;9.20;1.00;;;;;;5076179;28;20502;-71
2020/12/17 01:33:36;;;;;;;39.60;36.10;;;9.20;1.00;;;;;;5075348;28;20428;-71
2020/12/17 01:36:06;;;;;;;39.50;35.93;;;9.10;1.00;;;;;;5075521;28;20435;-71
2020/12/17 01:38:36;;;;;;;32.83;29.80;;;9.10;1.00;;;;;;5075531;28;20864;-71
2020/12/17 01:41:03;;;;;;;31.07;28.03;;;9.20;1.00;;;;;;5075813;28;20403;-71
2020/12/17 01:43:37;;;;;;;30.97;26.73;;;9.20;1.00;;;;;;5075159;28;20500;-71
2020/12/17 01:46:03;;;;;;;31.80;28.73;;;9.20;1.00;;;;;;5075490;28;20441;-71
2020/12/17 01:48:29;;;;;;;34.93;31.93;;;9.20;1.00;;;;;;5075502;28;20489;-71
2020/12/17 01:50:54;;;;;;;33.83;30.53;;;9.10;1.00;;;;;;5075164;28;20212;-71
2020/12/17 01:53:20;;;;;;;35.13;31.90;;;9.10;1.00;;;;;;5075325;28;20181;-71
2020/12/17 01:55:46;;;;;;;34.43;31.33;;;9.20;1.00;;;;;;5075492;28;20175;-71
2020/12/17 01:58:13;;;;;;;40.20;36.50;;;9.20;1.00;;;;;;5075674;28;20173;-72
2020/12/17 02:00:39;;;;;;;33.13;30.03;;;9.20;1.00;;;;;;5075186;28;20169;-71
2020/12/17 02:03:06;;;;;;;39.77;36.30;;;9.20;1.00;;;;;;5075212;28;20520;-71
2020/12/17 02:05:32;;;;;;;37.33;33.90;;;9.20;1.00;;;;;;5076015;28;20516;-71
2020/12/17 02:08:00;;;;;;;40.73;37.30;;;9.10;1.00;;;;;;5075105;28;20399;-71
2020/12/17 02:10:58;;;;;;;37.40;33.60;;;9.00;1.00;;;;;;5075093;28;20447;-71
2020/12/17 02:13:34;;;;;;;31.53;28.60;;;9.10;1.00;;;;;;5074181;28;20419;-71
2020/12/17 02:16:06;;;;;;;30.73;27.73;;;9.00;1.00;;;;;;5074260;28;20924;-71
2020/12/17 02:18:33;;;;;;;34.77;31.60;;;9.10;1.00;;;;;;5074667;28;20412;-71
2020/12/17 02:21:01;;;;;;;34.23;30.80;;;9.10;1.00;;;;;;5075089;28;20408;-71
2020/12/17 02:23:27;;;;;;;34.60;31.40;;;9.00;1.00;;;;;;5073755;28;20465;-71
2020/12/17 02:25:53;;;;;;;29.37;26.77;;;9.10;1.00;;;;;;5074647;28;20492;-71
2020/12/17 02:28:19;;;;;;;31.63;28.43;;;9.10;1.00;;;;;;5074199;28;20742;-71
2020/12/17 02:30:45;;;;;;;32.20;29.23;;;9.10;1.00;;;;;;5074586;28;20494;-71
2020/12/17 02:33:12;;;;;;;37.30;33.60;;;9.10;1.00;;;;;;5074794;28;20439;-71
2020/12/17 02:35:38;;;;;;;41.27;37.77;;;9.00;1.00;;;;;;5074638;28;20455;-71
2020/12/17 02:38:05;;;;;;;32.90;29.83;;;9.10;1.00;;;;;;5074248;28;20482;-71
2020/12/17 02:40:31;;;;;;;33.03;29.87;;;9.00;1.00;;;;;;5074639;28;20400;-71
2020/12/17 02:42:57;;;;;;;30.53;27.43;;;9.10;1.00;;;;;;5073077;28;20418;-71
2020/12/17 02:45:22;;;;;;;35.13;31.63;;;9.10;1.00;;;;;;5074380;28;20415;-71
2020/12/17 02:47:48;;;;;;;37.43;33.83;;;9.10;1.00;;;;;;5074491;28;20276;-71
2020/12/17 02:50:14;;;;;;;35.50;32.10;;;9.10;1.00;;;;;;5074311;28;20193;-71
2020/12/17 02:52:41;;;;;;;34.73;31.63;;;9.10;1.00;;;;;;5074181;28;20169;-71
2020/12/17 02:55:07;;;;;;;36.73;33.37;;;9.10;1.00;;;;;;5074405;28;20399;-71
2020/12/17 02:57:33;;;;;;;30.23;27.03;;;9.10;1.00;;;;;;5074142;28;20462;-71
2020/12/17 02:59:59;;;;;;;29.30;26.03;;;9.10;1.00;;;;;;5073824;28;20489;-71
2020/12/17 03:02:25;;;;;;;31.10;27.83;;;9.20;1.00;;;;;;5073263;28;20863;-71
2020/12/17 03:04:50;;;;;;;31.67;28.40;;;9.10;1.00;;;;;;5073962;28;20418;-71
2020/12/17 03:07:16;;;;;;;32.37;28.53;;;9.20;1.00;;;;;;5073656;28;20216;-71
2020/12/17 03:09:42;;;;;;;31.73;28.53;;;9.20;1.00;;;;;;5073558;28;20670;-71
2020/12/17 03:12:07;;;;;;;30.33;27.20;;;9.10;1.00;;;;;;5073868;28;20262;-71
2020/12/17 03:14:33;;;;;;;30.17;26.97;;;9.10;1.00;;;;;;5074018;28;20170;-71
2020/12/17 03:16:58;;;;;;;33.17;29.87;;;9.10;1.00;;;;;;5073522;28;20193;-71
2020/12/17 03:19:24;;;;;;;35.57;32.50;;;9.00;1.00;;;;;;5073564;28;20180;-71
2020/12/17 03:21:53;;;;;;;31.23;28.30;;;9.10;1.00;;;;;;5073597;28;20180;-71
2020/12/17 03:24:18;;;;;;;30.53;27.53;;;9.20;1.00;;;;;;5074158;28;20180;-71
2020/12/17 03:26:44;;;;;;;34.17;30.40;;;9.20;1.00;;;;;;5073978;28;20513;-71
2020/12/17 03:29:09;;;;;;;32.37;29.00;;;9.20;1.00;;;;;;5073424;28;20197;-71
2020/12/17 03:31:35;;;;;;;37.37;33.67;;;9.20;1.00;;;;;;5074138;28;20660;-71
2020/12/17 03:34:01;;;;;;;34.73;28.87;;;9.20;1.00;;;;;;5073813;28;20624;-71
2020/12/17 03:36:26;;;;;;;37.40;33.73;;;9.30;1.00;;;;;;5073744;28;20196;-71
2020/12/17 03:38:52;;;;;;;35.30;32.10;;;9.20;1.00;;;;;;5073321;28;20214;-71
2020/12/17 03:41:17;;;;;;;36.23;32.90;;;9.20;1.00;;;;;;5073447;28;20169;-71
2020/12/17 03:43:43;;;;;;;36.37;32.73;;;9.20;1.00;;;;;;5073718;28;20303;-71
2020/12/17 03:46:09;;;;;;;37.13;33.20;;;9.10;1.00;;;;;;5073479;28;20196;-71
2020/12/17 03:48:34;;;;;;;42.10;38.23;;;9.10;1.00;;;;;;5073565;28;20737;-71
2020/12/17 03:51:00;;;;;;;35.33;31.97;;;9.10;1.00;;;;;;5073166;28;20204;-71
2020/12/17 03:53:25;;;;;;;34.63;31.10;;;9.10;1.00;;;;;;5073491;28;20511;-71
2020/12/17 03:55:51;;;;;;;39.57;31.17;;;9.10;1.00;;;;;;5073477;28;20627;-71
2020/12/17 03:58:16;;;;;;;36.50;32.77;;;9.20;1.00;;;;;;5073511;28;20519;-71
2020/12/17 04:00:42;;;;;;;34.43;30.87;;;9.20;1.00;;;;;;5073589;28;20602;-71
2020/12/17 04:03:08;;;;;;;35.77;31.97;;;9.20;1.00;;;;;;5073549;28;20175;-71
2020/12/17 04:05:33;;;;;;;34.73;27.80;;;9.10;1.00;;;;;;5073429;28;20169;-71
2020/12/17 04:07:59;;;;;;;34.90;28.53;;;9.10;1.00;;;;;;5073464;28;20185;-71
2020/12/17 04:10:24;;;;;;;32.03;28.60;;;9.10;1.00;;;;;;5072879;28;20651;-71
2020/12/17 04:12:50;;;;;;;40.07;36.27;;;9.10;1.00;;;;;;5073405;28;20174;-71
2020/12/17 04:15:15;;;;;;;39.17;35.10;;;9.10;1.00;;;;;;5075719;28;20252;-71
2020/12/17 04:17:41;;;;;;;39.43;35.03;;;9.10;1.00;;;;;;5076719;28;20192;-71
2020/12/17 04:20:07;;;;;;;38.17;34.67;;;9.10;1.00;;;;;;5076681;28;20192;-71
2020/12/17 04:22:32;;;;;;;38.00;33.77;;;9.00;1.00;;;;;;5076853;28;20173;-70
2020/12/17 04:24:58;;;;;;;34.87;31.40;;;9.10;1.00;;;;;;5077051;28;20208;-71
2020/12/17 04:27:23;;;;;;;33.27;29.87;;;9.10;1.00;;;;;;5077038;28;20219;-71
2020/12/17 04:29:49;;;;;;;36.60;30.80;;;9.10;1.00;;;;;;5076923;28;20196;-71
2020/12/17 04:32:15;;;;;;;36.40;32.50;;;9.10;1.00;;;;;;5076893;28;20172;-71
2020/12/17 04:34:41;;;;;;;39.73;33.50;;;9.20;1.00;;;;;;5076598;28;20514;-71
2020/12/17 04:37:06;;;;;;;36.10;32.70;;;9.20;1.00;;;;;;5076703;28;20635;-71
2020/12/17 04:39:32;;;;;;;39.10;35.17;;;9.20;1.00;;;;;;5076658;28;20230;-71
2020/12/17 04:41:59;;;;;;;35.47;29.80;;;9.20;1.00;;;;;;5076930;28;20224;-71
2020/12/17 04:44:26;;;;;;;37.00;31.73;;;9.20;1.00;;;;;;5076630;28;20404;-71
2020/12/17 04:47:00;;;;;;;33.93;30.50;;;9.20;1.00;;;;;;5076411;28;20924;-71
2020/12/17 04:49:33;;;;;;;34.60;31.00;;;9.20;1.00;;;;;;5076036;28;20778;-71
2020/12/17 04:51:59;;;;;;;35.37;31.57;;;9.30;1.00;;;;;;5076610;28;20426;-71
2020/12/17 04:54:25;;;;;;;36.03;31.90;;;9.30;1.00;;;;;;5076631;28;20408;-71
2020/12/17 04:57:04;;;;;;;37.67;33.97;;;9.30;1.00;;;;;;5076319;28;20423;-71
2020/12/17 04:59:41;;;;;;;35.03;31.33;;;9.30;1.00;;;;;;5076492;28;20391;-71
2020/12/17 05:02:08;;;;;;;39.90;36.10;;;9.30;1.00;;;;;;5076684;28;20430;-71
2020/12/17 05:04:41;;;;;;;36.97;33.20;;;9.30;1.00;;;;;;5076419;28;20432;-71
2020/12/17 05:07:12;;;;;;;33.13;29.20;;;9.30;1.00;;;;;;5075973;28;20434;-71
2020/12/17 05:09:39;;;;;;;33.00;28.97;;;9.30;1.00;;;;;;5075765;28;20446;-71
2020/12/17 05:12:05;;;;;;;36.67;31.57;;;9.20;1.00;;;;;;5076566;28;20882;-71
2020/12/17 05:14:31;;;;;;;32.70;29.30;;;9.30;1.00;;;;;;5075956;28;20410;-71
2020/12/17 05:16:57;;;;;;;32.73;29.50;;;9.30;1.00;;;;;;5076131;28;20424;-71
2020/12/17 05:19:26;;;;;;;41.90;34.37;;;9.40;1.00;;;;;;5076068;28;20173;-72
2020/12/17 05:21:56;;;;;;;32.70;26.73;;;9.40;1.00;;;;;;5076287;28;20829;-71
2020/12/17 05:24:24;;;;;;;32.73;28.87;;;9.30;1.00;;;;;;5076056;28;20399;-71
2020/12/17 05:26:51;;;;;;;35.67;31.90;;;9.40;1.00;;;;;;5075382;28;20517;-71
2020/12/17 05:29:17;;;;;;;35.30;31.40;;;9.40;1.00;;;;;;5075580;28;20447;-71
2020/12/17 05:31:44;;;;;;;36.60;28.43;;;9.30;1.00;;;;;;5075865;28;20431;-71
2020/12/17 05:34:11;;;;;;;33.17;29.93;;;9.40;1.00;;;;;;5075627;28;20427;-71
2020/12/17 05:36:38;;;;;;;39.83;35.93;;;9.40;1.00;;;;;;5075833;28;20569;-71
2020/12/17 05:39:16;;;;;;;36.37;32.70;;;9.40;1.00;;;;;;5075745;28;20404;-71
2020/12/17 05:41:43;;;;;;;35.07;29.23;;;9.40;1.00;;;;;;5075989;28;20379;-71
2020/12/17 05:44:17;;;;;;;36.67;30.27;;;9.40;1.00;;;;;;5075441;28;20395;-71
2020/12/17 05:46:45;;;;;;;40.57;36.53;;;9.40;1.00;;;;;;5075146;28;20435;-71
2020/12/17 05:49:18;;;;;;;38.17;34.20;;;9.40;1.00;;;;;;5075231;28;20474;-71
2020/12/17 05:51:45;;;;;;;37.87;34.00;;;9.30;1.00;;;;;;5075823;28;20858;-71
2020/12/17 05:54:20;;;;;;;33.13;29.80;;;9.20;1.00;;;;;;5075140;28;20416;-71
2020/12/17 05:56:46;;;;;;;31.37;26.03;;;9.30;1.00;;;;;;5075487;28;20429;-71
2020/12/17 05:59:12;;;;;;;33.80;29.47;;;9.30;1.00;;;;;;5074967;28;20412;-71
2020/12/17 06:01:39;;;;;;;29.00;25.90;;;9.20;1.00;;;;;;5075375;28;20465;-71
2020/12/17 06:04:17;;;;;;;31.40;27.37;;;9.20;1.00;;;;;;5075145;28;20534;-71
2020/12/17 06:06:47;;;;;;;34.00;29.77;;;9.30;1.00;;;;;;5074996;28;20453;-71
2020/12/17 06:09:22;;;;;;;34.73;30.00;;;9.30;1.00;;;;;;5074686;28;20479;-71
2020/12/17 06:11:51;;;;;;;44.53;35.90;;;9.30;1.00;;;;;;5075405;28;20938;-71
2020/12/17 06:14:23;;;;;;;32.30;29.10;;;9.30;1.00;;;;;;5075140;28;20748;-71
2020/12/17 06:16:53;;;;;;;39.10;31.53;;;9.30;1.00;;;;;;5075000;28;20435;-71
2020/12/17 06:19:23;;;;;;;38.13;34.03;;;9.30;1.00;;;;;;5074543;28;20400;-71
2020/12/17 06:21:49;;;;;;;38.27;34.53;;;9.20;1.00;;;;;;5074786;28;20406;-71
2020/12/17 06:24:19;;;;;;;39.23;35.37;;;9.20;1.00;;;;;;5074662;28;20407;-71
2020/12/17 06:26:54;;;;;;;35.57;31.93;;;9.20;1.00;;;;;;5074533;28;20438;-71
2020/12/17 06:29:21;;;;;;;33.70;30.40;;;9.20;1.00;;;;;;5074240;28;20920;-71
2020/12/17 06:31:57;;;;;;;31.80;28.70;;;9.20;1.00;;;;;;5074834;28;20893;-71
2020/12/17 06:34:35;;;;;;;34.30;30.80;;;9.30;1.00;;;;;;5074165;28;20434;-71
2020/12/17 06:37:02;;;;;;;36.90;33.77;;;9.30;1.00;;;;;;5072140;28;20431;-71
2020/12/17 06:39:28;;;;;;;33.60;30.17;;;9.30;1.00;;;;;;5074252;28;20418;-71
2020/12/17 06:41:54;;;;;;;35.20;28.60;;;9.20;1.00;;;;;;5074618;28;20411;-71
2020/12/17 06:44:29;;;;;;;32.53;26.30;;;9.30;1.00;;;;;;5074058;28;20180;-71
2020/12/17 06:47:02;;;;;;;29.97;26.60;;;9.30;1.00;;;;;;5074767;28;20761;-71
2020/12/17 06:49:30;;;;;;;27.37;24.83;;;9.30;1.00;;;;;;5073970;28;20991;-71
2020/12/17 06:52:07;;;;;;;30.13;27.23;;;9.30;1.00;;;;;;5074213;28;20439;-71
2020/12/17 06:54:37;;;;;;;34.20;31.23;;;9.30;1.00;;;;;;5074142;28;20396;-71
2020/12/17 06:57:09;;;;;;;30.23;27.17;;;9.30;1.00;;;;;;5074094;28;20511;-71
2020/12/17 06:59:39;;;;;;;28.87;26.33;;;9.30;1.00;;;;;;5073717;28;20600;-71
2020/12/17 07:02:06;;;;;;;29.20;26.60;;;9.40;1.00;;;;;;5073166;28;20411;-71
2020/12/17 07:04:40;;;;;;;27.53;24.60;;;9.30;1.00;;;;;;5074368;28;20491;-71
2020/12/17 07:07:24;;;;;;;29.77;26.80;;;9.30;1.00;;;;;;5073676;28;20439;-71
2020/12/17 07:09:54;;;;;;;29.60;26.70;;;9.40;1.00;;;;;;5073923;28;20439;-71
2020/12/17 07:12:35;;;;;;;31.80;27.30;;;9.40;1.00;;;;;;5073728;28;20411;-71
2020/12/17 07:15:24;;;;;;;28.27;25.27;;;9.40;1.00;;;;;;5074297;28;20832;-71
2020/12/17 07:17:50;;;;;;;26.27;23.57;;;9.40;1.00;;;;;;5073478;28;20440;-71
2020/12/17 07:20:28;;;;;;;27.17;24.23;;;9.50;1.00;;;;;;5073871;28;20870;-71
2020/12/17 07:22:56;;;;;;;29.07;26.60;;;9.40;1.00;;;;;;5074322;28;20184;-71
2020/12/17 07:25:32;;;;;;;28.10;25.50;;;9.50;1.00;;;;;;5074006;28;20411;-71
2020/12/17 07:27:58;;;;;;;28.47;25.70;;;9.60;1.00;;;;;;5073769;28;20384;-71
2020/12/17 07:30:25;;;;;;;26.47;23.87;;;9.50;1.00;;;;;;5073619;28;20447;-71
2020/12/17 07:32:51;;;;;;;30.50;27.80;;;9.50;1.00;;;;;;5073793;28;20519;-71
2020/12/17 07:35:19;;;;;;;27.77;25.17;;;9.50;1.00;;;;;;5073300;28;20881;-71
2020/12/17 07:37:58;;;;;;;31.10;28.60;;;9.50;1.00;;;;;;5074150;28;20193;-72
2020/12/17 07:40:26;;;;;;;31.20;28.43;;;9.60;1.00;;;;;;5073565;28;20757;-71
2020/12/17 07:43:00;;;;;;;28.67;26.47;;;9.60;1.00;;;;;;5073766;28;20415;-71
2020/12/17 07:45:46;;;;;;;31.47;29.07;;;9.60;1.00;;;;;;5073585;28;20410;-71
2020/12/17 07:48:38;;;;;;;31.20;28.70;;;9.60;1.00;;;;;;5074584;28;20453;-71
2020/12/17 07:51:07;;;;;;;26.80;24.70;;;9.60;1.00;;;;;;5077616;28;20452;-71
2020/12/17 07:53:35;;;;;;;29.97;27.50;;;9.70;1.00;;;;;;5077294;28;20404;-71
2020/12/17 07:56:01;;;;;;;31.03;28.60;;;9.60;1.00;;;;;;5077560;28;20419;-71
2020/12/17 07:58:27;;;;;;;28.77;26.33;;;9.60;1.00;;;;;;5077048;28;20403;-71
2020/12/17 08:00:57;;;;;;;29.87;27.23;;;9.70;1.00;;;;;;5077630;28;20853;-70
2020/12/17 08:03:23;;;;;;;28.57;26.27;;;9.70;1.00;;;;;;5077498;28;20157;-71
2020/12/17 08:05:52;;;;;;;31.07;28.37;;;9.80;1.00;;;;;;5077346;28;20403;-71
2020/12/17 08:08:19;;;;;;;24.47;22.33;;;9.80;1.00;;;;;;5077513;28;20798;-71
2020/12/17 08:10:45;;;;;;;27.73;25.33;;;9.80;1.00;;;;;;5077394;28;20482;-70
2020/12/17 08:13:11;;;;;;;26.60;24.27;;;9.80;1.00;;;;;;5077133;28;20494;-71
2020/12/17 08:15:37;;;;;;;29.60;27.13;;;9.90;1.00;;;;;;5075347;28;20510;-71
2020/12/17 08:18:04;;;;;;;31.67;29.10;;;9.80;1.00;;;;;;5075575;28;20165;-71
2020/12/17 08:20:31;;;;;;;27.57;25.37;;;9.80;1.00;;;;;;5075200;28;20411;-71
2020/12/17 08:22:56;;;;;;;25.50;23.10;;;9.90;1.00;;;;;;5075488;28;20846;-70
2020/12/17 08:25:24;;;;;;;26.33;23.97;;;9.80;1.00;;;;;;5075300;28;20399;-71
2020/12/17 08:27:53;;;;;;;24.20;22.10;;;9.80;1.00;;;;;;5075469;28;20189;-70
2020/12/17 08:30:20;;;;;;;24.70;22.70;;;9.80;1.00;;;;;;5075023;28;20497;-71
2020/12/17 08:32:55;;;;;;;27.70;25.13;;;9.90;1.00;;;;;;5075407;28;20832;-71
2020/12/17 08:35:22;;;;;;;23.93;21.43;;;9.80;1.00;;;;;;5075217;28;20423;-71
2020/12/17 08:37:50;;;;;;;25.40;23.30;;;9.80;1.00;;;;;;5075356;28;20453;-71
2020/12/17 08:40:20;;;;;;;23.77;21.60;;;9.90;1.00;;;;;;5075014;28;20438;-71
2020/12/17 08:42:47;;;;;;;24.07;22.17;;;9.80;1.00;;;;;;5074690;28;20391;-71
2020/12/17 08:45:13;;;;;;;26.10;23.43;;;9.80;1.00;;;;;;5073215;28;20423;-71
2020/12/17 08:47:43;;;;;;;25.10;22.37;;;9.80;1.00;;;;;;5073413;28;20986;-71
2020/12/17 08:50:10;;;;;;;31.60;29.27;;;9.80;1.00;;;;;;5073491;28;20459;-71
2020/12/17 08:52:35;;;;;;;30.53;28.10;;;9.70;1.00;;;;;;5074073;28;20422;-71
2020/12/17 08:55:02;;;;;;;30.97;28.17;;;9.70;1.00;;;;;;5074610;28;20411;-71
2020/12/17 08:57:27;;;;;;;28.77;26.23;;;9.70;1.00;;;;;;5073445;28;20193;-71
2020/12/17 08:59:53;;;;;;;25.10;21.80;;;9.70;1.00;;;;;;5073421;28;20416;-72
2020/12/17 09:02:26;;;;;;;29.67;27.00;;;9.70;1.00;;;;;;5073073;28;20177;-71
2020/12/17 09:04:59;;;;;;;24.57;22.50;;;9.70;1.00;;;;;;5074658;28;20165;-72
2020/12/17 09:07:33;;;;;;;28.67;26.40;;;9.80;1.00;;;;;;5074114;28;20465;-71
2020/12/17 09:10:08;;;;;;;31.27;28.87;;;9.80;1.00;;;;;;5074131;28;20538;-71
2020/12/17 09:12:35;;;;;;;30.30;27.60;;;9.80;1.00;;;;;;5086797;28;20896;-71
2020/12/17 09:15:08;;;;;;;29.73;26.90;;;9.80;1.00;;;;;;5093254;28;20417;-71
2020/12/17 09:17:34;;;;;;;29.90;27.60;;;9.80;1.00;;;;;;5094369;28;20912;-71
2020/12/17 09:20:00;;;;;;;32.33;29.77;;;9.80;1.00;;;;;;5093948;28;20490;-71
2020/12/17 09:22:34;;;;;;;28.83;26.20;;;9.70;1.00;;;;;;5094109;28;20284;-71
2020/12/17 09:25:00;;;;;;;30.10;27.60;;;9.80;1.00;;;;;;5093855;28;20407;-71
2020/12/17 09:27:33;;;;;;;26.27;23.80;;;9.70;1.00;;;;;;5093848;28;20438;-71
2020/12/17 09:30:10;;;;;;;25.73;23.20;;;9.80;1.00;;;;;;5094009;28;20454;-72
2020/12/17 09:32:42;;;;;;;27.83;25.73;;;9.80;1.00;;;;;;5094062;28;20805;-72
2020/12/17 09:35:09;;;;;;;30.20;28.00;;;9.80;1.00;;;;;;5093804;28;20864;-71
2020/12/17 09:37:36;;;;;;;32.50;29.93;;;9.80;1.00;;;;;;5093844;28;20429;-72
2020/12/17 09:40:04;;;;;;;30.27;27.67;;;9.80;1.00;;;;;;5093753;28;20406;-71
2020/12/17 09:42:30;;;;;;;31.67;29.37;;;9.80;1.00;;;;;;5093939;28;20411;-71
2020/12/17 09:44:55;;;;;;;29.67;26.97;;;9.90;1.00;;;;;;5093959;28;20410;-71
2020/12/17 09:47:32;;;;;;;29.03;26.77;;;9.80;1.00;;;;;;5093941;28;20197;-71
2020/12/17 09:50:15;;;;;;;26.80;24.70;;;9.80;1.00;;;;;;5093806;28;20199;-71
2020/12/17 09:52:41;;;;;;;28.37;26.07;;;9.90;1.00;;;;;;5094075;28;20413;-71
2020/12/17 09:55:07;;;;;;;26.07;24.00;;;9.80;1.00;;;;;;5092603;28;20403;-72
2020/12/17 09:57:38;;;;;;;24.90;22.87;;;9.90;1.00;;;;;;5093176;28;20474;-71
2020/12/17 10:00:08;;;;;;;24.67;22.33;;;9.90;1.00;;;;;;5093805;28;20176;-72
2020/12/17 10:02:34;;;;;;;23.37;21.47;;;9.90;1.00;;;;;;5092441;28;20918;-72
2020/12/17 10:04:59;;;;;;;26.23;23.70;;;9.90;1.00;;;;;;5093738;28;20513;-72
2020/12/17 10:07:25;;;;;;;27.27;24.40;;;9.90;1.00;;;;;;5092638;28;20254;-72
2020/12/17 10:09:51;;;;;;;24.80;22.70;;;9.90;1.00;;;;;;5093076;28;20673;-71
2020/12/17 10:12:16;;;;;;;28.13;25.63;;;9.90;1.00;;;;;;5093666;28;20622;-71
2020/12/17 10:14:42;;;;;;;25.57;23.63;;;9.90;1.00;;;;;;5093612;28;20180;-71
2020/12/17 10:17:07;;;;;;;26.00;23.47;;;9.90;1.00;;;;;;5093106;28;20195;-71
2020/12/17 10:19:33;;;;;;;24.83;22.60;;;9.90;1.00;;;;;;5092778;28;20263;-71
2020/12/17 10:21:59;;;;;;;28.93;26.20;;;9.80;1.00;;;;;;5093205;28;20161;-71
2020/12/17 10:24:25;;;;;;;26.73;24.70;;;9.80;1.00;;;;;;5093046;28;20189;-71
2020/12/17 10:26:51;;;;;;;25.67;23.20;;;9.80;1.00;;;;;;5093065;28;20454;-71
2020/12/17 10:29:17;;;;;;;29.23;27.03;;;9.90;1.00;;;;;;5092916;28;20554;-71
2020/12/17 10:31:43;;;;;;;30.70;28.40;;;9.80;1.00;;;;;;5093087;28;20410;-71
2020/12/17 10:34:08;;;;;;;28.53;26.23;;;9.90;1.00;;;;;;5093104;28;20207;-71
2020/12/17 10:36:38;;;;;;;24.63;22.43;;;9.90;1.00;;;;;;5093039;28;20643;-71
2020/12/17 10:39:06;;;;;;;24.93;22.80;;;9.90;1.00;;;;;;5090199;28;20490;-72
2020/12/17 10:41:31;;;;;;;24.87;22.77;;;9.90;1.00;;;;;;5082844;28;20407;-71
2020/12/17 10:43:57;;;;;;;24.87;22.90;;;10.00;1.00;;;;;;5075638;28;20503;-71
2020/12/17 10:46:23;;;;;;;23.93;22.20;;;10.00;1.00;;;;;;5071170;28;20193;-70
2020/12/17 10:48:48;;;;;;;24.83;22.73;;;10.00;1.00;;;;;;5072309;28;20183;-71
2020/12/17 10:51:17;;;;;;;26.17;24.03;;;10.00;1.00;;;;;;5072196;28;20247;-71
2020/12/17 10:53:44;;;;;;;23.93;22.20;;;10.00;1.00;;;;;;5077141;28;20407;-72
2020/12/17 10:56:10;;;;;;;24.97;22.87;;;10.00;1.00;;;;;;5091647;28;20437;-71
2020/12/17 10:58:37;;;;;;;22.60;20.60;;;10.00;1.00;;;;;;5092511;28;20497;-73
2020/12/17 11:01:04;;;;;;;22.93;21.20;;;10.00;1.00;;;;;;5079734;28;20534;-71
2020/12/17 11:03:29;;;;;;;28.50;26.10;;;10.00;1.00;;;;;;5076039;28;20408;-71
2020/12/17 11:05:56;;;;;;;24.17;22.00;;;10.00;1.00;;;;;;5069871;28;20433;-71
2020/12/17 11:08:26;;;;;;;23.43;21.63;;;10.00;1.00;;;;;;5068391;28;20271;-72
2020/12/17 11:10:51;;;;;;;19.83;18.23;;;10.00;1.00;;;;;;5070317;28;20859;-72
2020/12/17 11:13:17;;;;;;;24.07;22.40;;;10.00;1.00;;;;;;5070969;28;20495;-72
2020/12/17 11:15:43;;;;;;;23.80;21.90;;;10.00;1.00;;;;;;5070941;28;20168;-71
2020/12/17 11:18:13;;;;;;;24.40;22.50;;;9.90;1.00;;;;;;5069910;28;20177;-72
2020/12/17 11:20:40;;;;;;;22.47;20.67;;;9.90;1.00;;;;;;5070997;28;20177;-72
2020/12/17 11:23:05;;;;;;;20.87;19.10;;;9.90;1.00;;;;;;5070646;28;20415;-71
2020/12/17 11:25:36;;;;;;;21.83;20.00;;;9.90;1.00;;;;;;5070950;28;20438;-71
2020/12/17 11:28:04;;;;;;;23.40;21.50;;;9.90;1.00;;;;;;5070961;28;20222;-71
2020/12/17 11:30:31;;;;;;;22.97;21.27;;;10.00;1.00;;;;;;5070707;28;20454;-71
2020/12/17 11:32:57;;;;;;;24.50;22.63;;;9.90;1.00;;;;;;5070855;28;20924;-71
2020/12/17 11:35:23;;;;;;;20.47;19.10;;;10.00;1.00;;;;;;5070945;28;20427;-71
2020/12/17 11:37:50;;;;;;;23.77;21.80;;;10.00;1.00;;;;;;5070746;28;20197;-72
2020/12/17 11:40:23;;;;;;;23.83;22.13;;;10.00;1.00;;;;;;5070858;28;20200;-72
2020/12/17 11:42:50;;;;;;;20.23;18.53;;;10.00;1.00;;;;;;5070799;28;20494;-71
2020/12/17 11:45:16;;;;;;;21.67;19.90;;;10.00;1.00;;;;;;5070691;28;20418;-71
2020/12/17 11:47:42;;;;;;;20.80;19.20;;;10.00;1.00;;;;;;5070760;28;20427;-71
2020/12/17 11:50:09;;;;;;;23.60;21.97;;;10.10;1.00;;;;;;5070533;28;20455;-72
2020/12/17 11:52:35;;;;;;;21.23;19.40;;;10.10;1.00;;;;;;5070891;28;20411;-71
2020/12/17 11:55:02;;;;;;;20.80;19.00;;;10.20;1.00;;;;;;5070680;28;20412;-71
2020/12/17 11:57:27;;;;;;;19.47;17.77;;;10.10;1.00;;;;;;5070601;28;20751;-72
2020/12/17 11:59:53;;;;;;;22.83;21.33;;;10.20;1.00;;;;;;5070482;28;20885;-72
2020/12/17 12:02:19;;;;;;;24.57;22.87;;;10.20;1.00;;;;;;5070418;28;20177;-71
2020/12/17 12:04:45;;;;;;;23.53;21.73;;;10.20;1.00;;;;;;5070260;28;20177;-72
2020/12/17 12:07:10;;;;;;;22.17;20.17;;;10.40;1.00;;;;;;5070381;28;20435;-72
2020/12/17 12:09:36;;;;;;;23.97;22.07;;;10.40;1.00;;;;;;5070385;28;20216;-71
2020/12/17 12:12:01;;;;;;;21.00;19.13;;;10.50;1.00;;;;;;5070385;28;20176;-71
2020/12/17 12:14:27;;;;;;;22.37;20.57;;;10.60;1.00;;;;;;5070307;28;20249;-71
2020/12/17 12:16:52;;;;;;;25.37;23.30;;;10.60;1.00;;;;;;5070379;28;20189;-71
2020/12/17 12:19:18;;;;;;;20.33;18.67;;;10.50;1.00;;;;;;5069807;28;20195;-69
2020/12/17 12:21:51;;;;;;;22.27;20.40;;;10.50;1.00;;;;;;5070475;28;20255;-70
2020/12/17 12:24:17;;;;;;;19.40;17.70;;;10.50;1.00;;;;;;5070571;28;20195;-70
2020/12/17 12:26:43;;;;;;;18.10;16.67;;;10.50;1.00;;;;;;5069988;28;20443;-71
2020/12/17 12:29:09;;;;;;;25.63;18.00;;;10.40;1.00;;;;;;5070541;28;20399;-70
2020/12/17 12:31:34;;;;;;;20.57;18.97;;;10.50;1.00;;;;;;5070196;28;20174;-71
2020/12/17 12:34:00;;;;;;;22.10;19.90;;;10.50;1.00;;;;;;5069926;28;20427;-70
2020/12/17 12:36:25;;;;;;;18.47;17.17;;;10.50;1.00;;;;;;5072822;28;20197;-71
2020/12/17 12:38:51;;;;;;;21.83;20.43;;;10.50;1.00;;;;;;5073962;28;20536;-70
2020/12/17 12:41:21;;;;;;;21.70;20.20;;;10.60;1.00;;;;;;5073611;28;20173;-70
2020/12/17 12:43:47;;;;;;;20.93;19.33;;;10.60;1.00;;;;;;5073746;28;20415;-71
2020/12/17 12:46:16;;;;;;;19.17;17.70;;;10.50;1.00;;;;;;5073620;28;20445;-70
2020/12/17 12:48:41;;;;;;;18.57;16.77;;;10.60;1.00;;;;;;5073460;28;20953;-71